Sal'sk, Russia
Current Conditions -  °F | °C
As of 1:00 PM on Saturday 22 Nov 2014 (Local Time) from URRR Reporting Station
Clear Clear  
Wind Chill: 23°   Ceiling: Unl
Heat Index: 34°   Visibility: 6mi
Dew Point: 10°   Wind: 18mph
Humidity: 38%   Direction: 60°ENE
Pressure: 30.24"   Gusts: 25mph
Location:  46.46°N, 41.54°E
Report Text: URRR 221000Z 06008G11MPS CAVOK 01/M12 Q1024 04CLRD70 NOSIG
Loading
Personal Weather Stations






























Interactive Weather Map New forecast layout! Learn more

10-Day Weather Forecast

Advertisements
Track Severe Weather on mobile